NCAR-RAP Real-Time Weather Data

Output produced by METARs form (20 February 2019  17:37 UTC)
found at http://weather.rap.ucar.edu/surface/
 
RJTT 201730Z 02011KT 9999 FEW010 BKN/// 10/07 Q1013 NOSIG RMK 1CU010 A2992
RJTT 201700Z 04007KT 360V060 9999 FEW010 BKN050 10/08 Q1013 NOSIG RMK 1CU010 5SC050 A2992
RJTT 201630Z 03005KT 9999 FEW010 BKN050 10/09 Q1013 NOSIG RMK 1CU010 7SC050 A2992
RJTT 201600Z 03008KT 9999 -SHRA FEW010 BKN035 10/08 Q1013 NOSIG RMK 1CU010 7CU035 A2992
RJTT 201530Z 02010KT 9999 -SHRA FEW010 SCT015 BKN030 10/09 Q1013 NOSIG RMK 1CU010 3CU015 7CU030 A2991
RJTT 201500Z 03011KT 9999 -SHRA FEW008 SCT015 BKN025 10/08 Q1012 NOSIG RMK 1ST008 3CU015 7CU025 A2990
RJTT 201430Z 03014KT 9000 -SHRA FEW008 SCT012 BKN020 10/08 Q1012 NOSIG RMK 1ST008 3CU012 5CU020 A2990
RJTT 201415Z 03016KT 9999 -SHRA FEW008 SCT010 BKN020 10/08 Q1012 RMK 1ST008 3ST010 7CU020 A2990 LGT TO MOD TURB OBS AT 1400Z OPPAR BTN 10000FT AND 13000FT BY B77W
RJTT 201400Z 03019KT 8000 -SHRA FEW005 SCT008 BKN012 10/09 Q1012 TEMPO 4000 SHRA BR FEW005 BKN008 RMK 1ST005 3ST008 7CU012 A2989
RJTT 201346Z 02018KT 5000 -SHRA BR FEW005 BKN008 BKN015 11/10 Q1012 RMK 1ST005 5ST008 7CU015 A2988
RJTT 201340Z 02018KT 5000 -SHRA BR FEW007 BKN012 BKN020 11/10 Q1012 RMK 1ST007 5CU012 7CU020 A2988
RJTT 201333Z 02016KT 6000 -SHRA FEW008 BKN012 BKN020 12/10 Q1012 RMK 1ST008 5CU012 7CU020 A2988
RJTT 201330Z 02015KT 7000 -SHRA FEW010 BKN015 BKN020 12/10 Q1011 TEMPO 4000 SHRA BR FEW005 BKN008
RJTT 201320Z 02011KT 7000 -SHRA FEW010 BKN015 BKN025 12/10 Q1011 RMK 1CU010 5CU015 7CU025 A2988
RJTT 201300Z 03011KT 5000 SHRA BR FEW015 SCT020 BKN030 12/10 Q1011 TEMPO 4000 SHRA BR FEW005 BKN008
RJTT 201244Z 33008KT 300V360 4500 SHRA BR FEW015 BKN020 BKN025 12/10 Q1011 RMK 1CU015 5CU020 7CU025 A2988
RJTT 201234Z 03012KT 5000 SHRA BR FEW015 BKN020 12/10 Q1011 RMK 1CU015 7CU020 A2987 MOD TURB OBS AT 1228Z 10NM S HANEDA BTN 8000FT AND 10000FT IN CMB BY B738
RJTT 201230Z 03012KT 9000 -SHRA FEW015 BKN020 12/10 Q1011 TEMPO 4000 SHRA BR FEW008 BKN012
RJTT 201200Z 06006KT 9999 -SHRA FEW015 BKN020 12/10 Q1011 BECMG 34010KT TEMPO 4000 SHRA BR FEW008 BKN012 RMK 1CU015 7CU020 A2985 MOD TURB OBS AT 1135Z 10NM S SEKIYADO 13000FT IN CMB BY B763 AND MOD TURB OBS AT 1140Z YANAG BTN 11000FT AND 13000FT IN CMB BY
RJTT 201130Z 05008KT 9999 -SHRA FEW015 BKN035 12/10 Q1011 BECMG 34012KT RMK 1CU015 7CU035 A2986 MOD TURB OBS AT 1105Z 7NM S SEKIYADO BTN 13000FT AND 15000FT IN CMB BY B777 AND MOD TURB OBS AT 1115Z AROUND STONE BTN 14000FT AND 12000FT IN DES BY B777
RJTT 201100Z 06009KT 9999 FEW015 BKN035 12/10 Q1011 BECMG 36010KT
RJTT 201030Z 06008KT 9999 FEW015 BKN035 BKN080 12/10 Q1011 BECMG 36008KT
RJTT 201000Z 08006KT 9999 -RA FEW015 BKN040 11/10 Q1011 BECMG 05008KT RMK 1CU015 7SC040 A2986 MOD TURB OBS AT 0949Z KAMAT BTN 11000FT AND 13000FT BY A320
RJTT 200930Z 07009KT 9999 FEW020 BKN040 12/10 Q1011 BECMG 05008KT
RJTT 200900Z 06010KT 9999 FEW020 BKN040 12/10 Q1011 BECMG 05008KT RMK 1CU020 7SC040 A2986
RJTT 200830Z 09014KT 9999 FEW020 SCT040 BKN070 13/10 Q1010 NOSIG RMK 1CU020 3SC040 7AC070 A2983
RJTT 200800Z 10010KT 9999 FEW020 BKN040 BKN070 12/10 Q1010 NOSIG RMK 1CU020 6SC040 7AC070 A2984 MOD TURB OBS AT 0735Z 20NM N CREAM 11000FT BY B738
RJTT 200730Z 10009KT 9999 FEW030 BKN035 12/10 Q1010 NOSIG RMK 1CU030 7SC035 A2984
RJTT 200700Z 08007KT 9999 FEW030 BKN035 BKN070 12/10 Q1010 NOSIG RMK 1CU030 6SC035 7AC070 A2984
RJTT 200630Z 08009KT 9999 FEW030 13/10 Q1009 NOSIG RMK 1CU030 A2982
RJTT 200600Z 09011KT 9999 FEW030 13/10 Q1009 NOSIG RMK 1CU030 A2981
RJTT 200530Z 10012KT 9999 FEW030 14/11 Q1009 NOSIG RMK 1CU030 A2980
RJTT 200500Z 10011KT 9999 FEW030 15/11 Q1009 NOSIG RMK 1CU030 A2980
RJTT 200430Z 08006KT 9999 FEW030 15/11 Q1009 NOSIG RMK 1CU030 A2982
RJTT 200400Z 06008KT 9999 FEW030 16/10 Q1009 BECMG 11008KT RMK 1CU030 A2982
RJTT 200330Z VRB02KT 7000 FEW030 SCT070 14/08 Q1010 NOSIG RMK 1CU030 3AC070 A2984
RJTT 200300Z 11003KT 050V140 7000 FEW030 13/08 Q1010 NOSIG RMK 1CU030 A2985
RJTT 200230Z 09003KT 060V130 7000 FEW030 12/08 Q1010 NOSIG RMK 1CU030 A2985
RJTT 200200Z 10007KT 6000 FEW030 12/08 Q1011 NOSIG RMK 1CU030 A2987
RJTT 200130Z 07006KT 6000 FEW030 12/08 Q1010 BECMG 05005KT
RJTT 200119Z 04006KT 6000 NSC 12/08 Q1011 RMK A2985
RJTT 200100Z 07006KT 5000 BR NSC 11/08 Q1011 BECMG 05007KT RMK A2985
RJTT 200030Z 03008KT 5000 BR NSC 10/07 Q1010 NOSIG RMK A2984
RJTT 200000Z 02009KT 5000 BR NSC 10/07 Q1011 NOSIG RMK A2985
RJTT 192330Z 07003KT 010V100 5000 BR FEW020 BKN/// 09/06 Q1011 BECMG 05005KT RMK 1CU020 A2985
RJTT 192300Z 11006KT 5000 BR FEW020 BKN/// 08/07 Q1011 BECMG 05005KT TEMPO 4000 BR RMK 1CU020 A2985
RJTT 192230Z 09005KT 7000 BR NSC 08/06 Q1010 NOSIG RMK A2984 BR NE-SE
RJTT 192200Z 10003KT 030V150 7000 BR FEW040 SCT/// 08/06 Q1010 NOSIG RMK 1SC040 A2984 BR NE-SE
RJTT 192130Z 04005KT 7000 FEW040 BKN/// 08/06 Q1009 NOSIG RMK 1SC040 A2982
RJTT 192100Z VRB02KT 9999 FEW015 BKN/// 08/05 Q1009 NOSIG RMK 1SC015 A2982
RJTT 192030Z 26004KT 210V290 9999 FEW015 BKN/// 07/05 Q1009 NOSIG RMK 1SC015 A2982
RJTT 192000Z 30005KT 9999 FEW010 BKN/// 08/05 Q1009 NOSIG RMK 1SC010 A2981
RJTT 191930Z 29004KT 9999 FEW010 BKN/// 08/05 Q1009 NOSIG
RJTT 191900Z 31005KT 9999 FEW010 BKN/// 08/05 Q1009 NOSIG RMK 1SC010 A2980
RJTT 191830Z 30003KT 250V320 9000 FEW008 SCT010 BKN/// 08/06 Q1009 NOSIG
RJTT 191800Z 31003KT 9000 FEW008 SCT010 09/06 Q1009 NOSIG RMK 1ST008 4SC010 A2980
RJTT 191730Z 32005KT 9000 FEW008 BKN012 09/06 Q1009 NOSIG RMK 1ST008 7SC012 A2982
RJTT 191700Z 36005KT 8000 FEW008 BKN014 09/06 Q1009 NOSIG RMK 1ST008 7SC014 A2982
RJTT 191637Z 36004KT 7000 FEW008 BKN014 10/07 Q1009 RMK 1ST008 7SC014 A2982
RJTT 191630Z 35005KT 7000 FEW008 BKN015 09/06 Q1010 NOSIG RMK 1ST008 7SC015 A2982
RJTT 191600Z 36006KT 7000 FEW006 SCT010 BKN015 10/07 Q1010 TEMPO FEW008 BKN012
RJTT 191530Z 35006KT 7000 FEW003 SCT006 BKN010 10/08 Q1010 TEMPO 4000 BR FEW005 BKN008
RJTT 191520Z 35008KT 6000 BR FEW003 SCT006 BKN010 10/08 Q1010 RMK 1ST003 4ST006 6ST010 A2984 BR SE
RJTT 191500Z 35006KT 5000 PRFG BR FEW002 SCT003 BKN006 11/10 Q1010 TEMPO 4000 BR FEW003 BKN005 RMK 1ST002 3ST003 6ST006 A2984 2000SE FG SE
RJTT 191438Z 03004KT 4500 R34L/P2000N R22/P2000N R34R/P2000N R23/2000N -RA PRFG BR FEW002 BKN006 BKN009 11/11 Q1010 RMK 1ST002 6ST006 7ST009 A2984 2000E-SE FG E-SE
RJTT 191430Z 03004KT 4500 -RA BR FEW004 BKN007 BKN010 11/11 Q1010 TEMPO FEW003 BKN005
RJTT 191413Z 13003KT 050V160 5000 BR FEW005 BKN008 BKN010 11/10 Q1010 RMK 1ST005 6ST008 7ST010 A2985
RJTT 191400Z VRB02KT 4000 -RA BR FEW002 SCT005 BKN007 11/10 Q1011 BECMG 34006KT TEMPO FEW003 BKN005 RMK 1ST002 3ST005 6ST007 A2985
RJTT 191330Z 12003KT 090V170 4000 -RA BR FEW002 SCT005 BKN007 10/10 Q1011 BECMG 34006KT
RJTT 191307Z 08008KT 5000 -RA BR FEW003 SCT005 BKN006 11/10 Q1012 RMK 1ST003 3ST005 6ST006 A2990
RJTT 191300Z 04006KT 010V080 7000 -RA FEW004 SCT006 BKN007 11/10 Q1012 TEMPO 4000 -RA BR RMK 1ST004 3ST006 7ST007 A2991
RJTT 191247Z 28004KT 240V010 8000 -RA FEW006 BKN007 BKN009 12/11 Q1013 RMK 1ST006 5ST007 7ST009 A2992
RJTT 191230Z 25003KT 160V340 9000 -RA FEW006 BKN009 BKN010 12/11 Q1013 TEMPO 4000 -RA BR
RJTT 191217Z VRB02KT 9000 -RA FEW006 BKN009 BKN013 11/11 Q1013 RMK 1ST006 5ST009 7SC013 A2993
RJTT 191200Z 19006KT 9000 FEW006 SCT010 BKN013 12/11 Q1013 TEMPO 4000 -RA BR FEW005 BKN008 RMK 1ST006 3ST010 7SC013 A2994
RJTT 191130Z 18009KT 9999 FEW005 BKN008 BKN010 11/10 Q1014 TEMPO 4000 -RA BR
RJTT 191118Z 17011KT 9999 FEW005 BKN008 BKN013 11/10 Q1014 RMK 1ST005 5ST008 6SC013 A2996
RJTT 191100Z 16014KT 9999 -RA FEW008 BKN013 BKN025 10/10 Q1014 TEMPO 4000 -RA BR FEW005 BKN008
RJTT 191030Z 17010KT 9999 -RA FEW010 SCT015 BKN025 11/10 Q1016 TEMPO 4000 -RA BR FEW008 BKN012
RJTT 191000Z 18007KT 9999 -RA FEW010 BKN020 11/09 Q1017 TEMPO 4000 -RA BR RMK 1ST010 7SC020 A3005
RJTT 190930Z 18009KT 9999 -RA FEW015 BKN025 12/08 Q1017 NOSIG RMK 1SC015 7SC025 A3005
RJTT 190900Z 23010KT 9999 VCSH FEW015 BKN025 BKN030 13/07 Q1017 NOSIG RMK 1SC015 6SC025 7SC030 A3005
RJTT 190830Z 22011KT 180V250 9999 -RA FEW015 BKN040 BKN050 13/07 Q1017 NOSIG RMK 1CU015 5SC040 7SC050 A3004
RJTT 190800Z 24010KT 190V260 9999 FEW015 BKN040 13/07 Q1018 BECMG 22014KT RMK 1CU015 7SC040 A3007
RJTT 190730Z 23013KT 9999 FEW015 BKN050 13/07 Q1018 NOSIG RMK 1CU015 7SC050 A3007
RJTT 190700Z 23015KT 180V250 9999 FEW015 SCT050 BKN070 13/06 Q1019 NOSIG RMK 1CU015 4SC050 7AC070 A3009
RJTT 190630Z 23008KT 180V260 9999 FEW015 SCT060 BKN100 13/08 Q1019 NOSIG RMK 1CU015 4SC060 6AC100 A3009
RJTT 190617Z 21010KT 180V240 9999 FEW015 SCT060 BKN100 13/08 Q1019 RMK 1CU015 4SC060 6AC100 A3010
RJTT 190600Z 13003KT 050V180 9999 FEW015 SCT060 BKN100 11/08 Q1019 BECMG 20012KT RMK 1CU015 3SC060 5AC100 A3011
RJTT 190530Z 08003KT 9999 FEW020 BKN100 OVC180 10/07 Q1019 BECMG TL0600 20012KT
RJTT 190500Z 10004KT 9999 FEW015 BKN090 OVC130 09/06 Q1020 BECMG TL0600 20010KT RMK 1CU015 6AC090 8AS130 A3014
RJTT 190430Z 09004KT 9999 -RA FEW015 BKN080 OVC100 09/05 Q1021 BECMG 20010KT
RJTT 190400Z 11003KT 9999 -RA FEW030 BKN080 OVC110 09/05 Q1021 BECMG 20010KT RMK 1CU030 5AC080 8AS110 A3017
RJTT 190330Z 11003KT 9999 -RA FEW030 BKN080 OVC110 09/05 Q1022 NOSIG RMK 1CU030 5AC080 8AS110 A3019
RJTT 190300Z 10004KT 9999 -RA FEW030 SCT050 BKN080 09/04 Q1023 NOSIG RMK 1CU030 3SC050 7AC080 A3021 P/FR
RJTT 190230Z 12003KT 9999 -RA FEW030 SCT050 OVC100 09/03 Q1024 NOSIG RMK 1CU030 4SC050 8AS100 A3024
RJTT 190200Z VRB02KT 9999 -RA FEW030 BKN050 OVC110 09/02 Q1024 BECMG 14006KT RMK 1CU030 6SC050 8AS110 A3026
RJTT 190130Z VRB01KT 9999 -RA FEW030 BKN050 OVC110 09/02 Q1025 BECMG 14006KT
RJTT 190100Z VRB01KT 9999 -RA FEW030 SCT090 OVC110 09/01 Q1025 BECMG 08005KT RMK 1CU030 3AC090 8AS110 A3028
RJTT 190030Z VRB02KT 9999 FEW030 OVC110 09/01 Q1025 BECMG 08005KT
RJTT 190000Z VRB01KT 9999 FEW040 OVC110 09/M00 Q1026 BECMG 08005KT RMK 1SC040 8AS110 A3030
RJTT 182330Z 28003KT 240V340 9999 FEW040 BKN110 08/M01 Q1026 NOSIG RMK 2SC040 7AS110 A3032
RJTT 182300Z 26005KT 9999 FEW040 BKN120 08/M01 Q1026 NOSIG RMK 1CU040 7AC120 A3032
RJTT 182230Z 26005KT CAVOK 08/00 Q1026 NOSIG RMK A3032
RJTT 182200Z VRB02KT CAVOK 08/01 Q1026 NOSIG RMK A3031
RJTT 182130Z 30003KT 260V340 9999 FEW040 BKN100 08/01 Q1026 NOSIG RMK 1SC040 7AC100 A3030
RJTT 182100Z 27003KT 230V300 9999 FEW040 BKN110 08/01 Q1025 NOSIG RMK 1SC040 7AC110 A3029
RJTT 182030Z 28003KT 200V300 9999 FEW040 BKN130 08/01 Q1026 NOSIG RMK 1SC040 7AC130 A3030
RJTT 182000Z 33003KT 300V010 9999 FEW040 BKN130 08/03 Q1026 NOSIG RMK 1SC040 7AC130 A3030
RJTT 181930Z 36006KT 9999 FEW020 BKN130 08/04 Q1025 NOSIG RMK 1CU020 7AC130 A3028
RJTT 181900Z 34004KT 9999 FEW020 BKN140 08/05 Q1025 NOSIG RMK 1CU020 7AC140 A3028
RJTT 181830Z 30004KT 9999 FEW020 BKN150 08/04 Q1025 NOSIG RMK 1CU020 7AC150 A3029
RJTT 181800Z 30003KT 9999 FEW020 BKN160 08/04 Q1025 NOSIG RMK 1CU020 7AC160 A3029
RJTT 181730Z 32003KT 300V360 9999 FEW020 BKN170 08/04 Q1025 NOSIG RMK 1CU020 7AC170 A3029
RJTT 181700Z 30004KT 9999 FEW020 BKN170 08/04 Q1026 NOSIG RMK 1CU020 5AC170 A3030
RJTT 181630Z 29003KT 9999 FEW020 SCT170 09/05 Q1026 NOSIG RMK 1CU020 3AC170 A3030
RJTT 181600Z VRB01KT 9999 FEW020 BKN170 09/06 Q1026 BECMG 34005KT RMK 1CU020 5AC170 A3031
RJTT 181530Z 36003KT 320V030 9999 FEW020 BKN180 09/06 Q1026 NOSIG RMK 1CU020 6AC180 A3031
RJTT 181500Z 01003KT 9999 FEW020 BKN180 09/07 Q1026 NOSIG RMK 1CU020 7AC180 A3031
RJTT 181430Z 01002KT 9999 FEW030 09/06 Q1026 NOSIG RMK 1CU030 A3031
RJTT 181400Z VRB02KT 9999 FEW030 10/06 Q1026 BECMG 34005KT RMK 1CU030 A3031
RJTT 181330Z VRB02KT 9999 FEW030 09/07 Q1026 BECMG 34005KT
RJTT 181300Z VRB02KT 9999 FEW035 BKN/// 09/07 Q1026 NOSIG RMK 1CU035 A3031
RJTT 181230Z 11003KT 9999 FEW035 BKN/// 09/07 Q1026 NOSIG
RJTT 181200Z 14005KT 9999 FEW035 09/05 Q1026 NOSIG RMK 1CU035 A3030
RJTT 181130Z 15006KT 9999 FEW035 09/05 Q1025 NOSIG RMK 2CU035 A3028
RJTT 181100Z 13005KT 9999 FEW030 SCT/// 09/07 Q1025 NOSIG
RJTT 181030Z 14008KT 9999 FEW030 BKN/// 10/05 Q1025 NOSIG
RJTT 181000Z 17009KT 9999 FEW030 BKN/// 11/04 Q1025 NOSIG RMK 1CU030 A3027
RJTT 180930Z 19007KT 160V230 9999 FEW030 BKN/// 12/04 Q1024 NOSIG
RJTT 180900Z 19009KT 9999 FEW030 BKN/// 12/04 Q1024 NOSIG RMK 1CU030 A3025
RJTT 180830Z 19011KT 9999 FEW030 12/03 Q1024 NOSIG RMK 1CU030 A3024
RJTT 180800Z 18012KT 9999 FEW040 12/03 Q1023 NOSIG RMK 1SC040 A3023
RJTT 180730Z 17010KT 9999 FEW040 13/03 Q1023 NOSIG RMK 1CU040 A3023
RJTT 180700Z 17010KT 9999 FEW040 13/02 Q1023 NOSIG RMK 1CU040 A3022
RJTT 180630Z 11009KT 9999 FEW040 11/03 Q1023 BECMG 17010KT RMK 1CU040 A3021
RJTT 180600Z 10010KT 9999 FEW040 11/04 Q1022 BECMG 18010KT RMK 1CU040 A3021